Terminal Aerodrome Forecast
Issued by NWS

Home | Current Version | Previous Version | Text Only | Print | Product List | Glossary On
Versions: 1 2 3 4 5 6 7 8 9 10 11 12 13 14 15 16
000
FTUS46 KMFR 150539
TAFRBG
TAF
KRBG 150539Z 1506/1606 00000KT 1/4SM FG VV002
     FM151800 33006KT 2SM -SHRA BKN005 BKN030 BKN250
     FM152100 01008KT 5SM -RA BKN020 OVC040
     FM160400 36003KT 6SM BR OVC001
     FM160500 01002KT 1/2SM FG OVC001=

USA.gov is the U.S. government's official web portal to all federal, state and local government web resources and services.